Time;durP1;ratioP1;P1;durP2;ratioP2;P2;SDS_P1;SDS_P2;PMS_P1;PMS_P2;Temp;Humidity;BMP_temperature;BMP_pressure;BME280_temperature;BME280_humidity;BME280_pressure;Samples;Min_cycle;Max_cycle;Signal;HPM_P1;HPM_P2
2022/02/10 00:13:07;;;;;;;;;;;7.80;99.90;;;;;;5116171;28;19922;-82
2022/02/10 00:16:22;;;;;;;;;;;7.80;99.90;;;;;;5116108;28;20226;-81
2022/02/10 00:19:05;;;;;;;;;;;7.80;99.90;;;;;;5114951;28;19927;-82
2022/02/10 00:21:50;;;;;;;;;;;7.80;99.90;;;;;;5096590;28;20003;-82
2022/02/10 00:37:57;;;;;;;;;;;7.90;99.90;;;;;;5097692;28;19908;-80
2022/02/10 00:40:27;;;;;;;;;;;7.90;99.90;;;;;;5098628;28;20552;-82
2022/02/10 00:42:53;;;;;;;;;;;7.90;99.90;;;;;;5098703;28;19926;-82
2022/02/10 00:45:20;;;;;;;;;;;7.90;99.90;;;;;;5099727;28;20484;-82
2022/02/10 00:47:58;;;;;;;;;;;7.80;99.90;;;;;;5117902;28;19950;-81
2022/02/10 00:50:25;;;;;;;;;;;7.90;99.90;;;;;;5099732;28;19915;-82
2022/02/10 00:52:58;;;;;;;;;;;7.90;99.90;;;;;;5099134;28;20011;-82
2022/02/10 00:55:27;;;;;;;;;;;7.80;99.90;;;;;;5099650;28;20295;-81
2022/02/10 00:57:53;;;;;;;;;;;7.90;99.90;;;;;;5099565;28;20253;-82
2022/02/10 01:11:48;;;;;;;;;;;7.80;99.90;;;;;;5103879;28;19915;-84
2022/02/10 01:30:13;;;;;;;;;;;7.80;99.90;;;;;;5112064;28;19915;-82
2022/02/10 01:32:42;;;;;;;;;;;7.80;99.90;;;;;;5118571;28;20227;-84
2022/02/10 01:35:10;;;;;;;;;;;7.80;99.90;;;;;;5117625;28;19907;-84
2022/02/10 01:37:36;;;;;;;;;;;7.80;99.90;;;;;;5118862;28;20218;-84
2022/02/10 01:40:15;;;;;;;;;;;7.80;99.90;;;;;;5100331;28;19912;-86
2022/02/10 02:04:13;;;;;;;;;;;7.70;99.90;;;;;;5118669;28;19969;-87
2022/02/10 02:06:45;;;;;;;;;;;7.70;99.90;;;;;;5118456;28;20318;-86
2022/02/10 02:09:13;;;;;;;;;;;7.70;99.90;;;;;;5100250;28;19964;-85
2022/02/10 02:11:39;;;;;;;;;;;7.70;99.90;;;;;;5099548;28;19945;-85
2022/02/10 02:14:06;;;;;;;;;;;7.70;99.90;;;;;;5099169;28;19923;-83
2022/02/10 02:16:31;;;;;;;;;;;7.70;99.90;;;;;;5118523;28;20226;-84
2022/02/10 02:18:57;;;;;;;;;;;7.70;99.90;;;;;;5118049;28;19920;-84
2022/02/10 02:21:23;;;;;;;;;;;7.70;99.90;;;;;;5099653;28;20312;-86
2022/02/10 02:23:48;;;;;;;;;;;7.70;99.90;;;;;;5089661;28;19915;-85
2022/02/10 02:26:19;;;;;;;;;;;7.70;99.90;;;;;;5116896;28;19957;-86
2022/02/10 02:28:49;;;;;;;;;;;7.70;99.90;;;;;;5099965;28;19994;-86
2022/02/10 02:31:21;;;;;;;;;;;7.70;99.90;;;;;;5100139;28;20010;-84
2022/02/10 02:37:00;;;;;;;;;;;7.70;99.90;;;;;;5117998;28;19908;-85
2022/02/10 02:39:33;;;;;;;;;;;7.70;99.90;;;;;;5117123;28;19916;-78
2022/02/10 03:07:57;;;;;;;;;;;7.60;99.90;;;;;;5117374;28;19960;-85
2022/02/10 03:10:09;;;;;;;;;;;7.60;99.90;;;;;;5094951;28;20321;-84
2022/02/10 03:12:36;;;;;;;;;;;7.60;99.90;;;;;;5098316;28;19915;-85
2022/02/10 03:15:04;;;;;;;;;;;7.60;99.90;;;;;;5099023;28;19912;-85
2022/02/10 03:20:17;;;;;;;;;;;7.60;99.90;;;;;;5097214;28;19908;-84
2022/02/10 04:00:04;;;;;;;;;;;7.60;99.90;;;;;;5096705;28;19923;-79
2022/02/10 04:06:26;;;;;;;;;;;7.60;99.90;;;;;;5096495;28;19908;-85
2022/02/10 04:16:40;;;;;;;;;;;7.60;99.90;;;;;;5095822;28;19912;-82
2022/02/10 04:20:11;;;;;;;;;;;7.70;99.90;;;;;;5115508;28;19973;-82
2022/02/10 04:24:37;;;;;;;;;;;7.70;99.90;;;;;;5116069;28;20266;-83
2022/02/10 04:43:51;;;;;;;;;;;7.00;99.90;;;;;;5120034;28;19915;-78
2022/02/10 05:05:20;;;;;;;;;;;6.60;99.90;;;;;;5119354;28;20204;-81
2022/02/10 05:08:06;;;;;;;;;;;6.50;99.90;;;;;;5111377;28;19981;-83
2022/02/10 05:33:56;;;;;;;;;;;6.40;99.90;;;;;;5101821;28;19923;-85
2022/02/10 05:36:26;;;;;;;;;;;6.30;99.90;;;;;;5092435;28;19924;-84
2022/02/10 05:39:18;;;;;;;;;;;6.30;99.90;;;;;;5099827;28;19912;-84
2022/02/10 05:44:32;;;;;;;;;;;6.40;99.90;;;;;;5107926;28;20006;-84
2022/02/10 05:58:12;;;;;;;;;;;6.30;99.90;;;;;;5083118;28;19943;-83
2022/02/10 06:01:33;;;;;;;;;;;6.30;99.90;;;;;;5093908;28;20002;-84
2022/02/10 07:58:45;;;;;;;;;;;6.50;99.90;;;;;;5109798;28;20294;-82
2022/02/10 08:26:35;;;;;;;;;;;6.60;99.90;;;;;;5115257;28;19937;-82
2022/02/10 08:58:25;;;;;;;;;;;7.40;99.90;;;;;;5102389;28;20596;-82
2022/02/10 09:06:24;;;;;;;;;;;7.40;99.90;;;;;;5118422;28;19993;-81
2022/02/10 10:00:12;;;;;;;;;;;7.70;99.90;;;;;;5115454;28;19916;-81
2022/02/10 10:02:43;;;;;;;;;;;7.70;99.90;;;;;;5095915;28;19916;-80
2022/02/10 10:05:37;;;;;;;;;;;7.80;99.90;;;;;;5094113;28;20210;-80
2022/02/10 10:08:18;;;;;;;;;;;7.80;99.90;;;;;;5110414;28;19916;-80
2022/02/10 10:10:56;;;;;;;;;;;7.90;99.90;;;;;;5097037;28;19919;-81
2022/02/10 10:51:53;;;;;;;;;;;8.80;99.90;;;;;;5101094;28;20223;-81
2022/02/10 10:56:49;;;;;;;;;;;9.00;99.90;;;;;;5114188;28;19908;-78
2022/02/10 11:38:27;;;;;;;;;;;8.50;99.90;;;;;;5114565;28;20213;-79
2022/02/10 11:43:42;;;;;;;;;;;8.40;99.90;;;;;;5095254;28;19912;-80
2022/02/10 14:12:22;;;;;;;;;;;8.10;99.90;;;;;;5115007;28;19920;-79
2022/02/10 14:17:09;;;;;;;;;;;8.10;99.90;;;;;;5114137;28;20318;-79
2022/02/10 14:27:27;;;;;;;;;;;8.00;99.90;;;;;;5113580;28;19919;-77
2022/02/10 14:29:53;;;;;;;;;;;8.00;99.90;;;;;;5115625;28;19916;-79
2022/02/10 14:32:23;;;;;;;;;;;7.90;99.90;;;;;;5112487;28;19923;-78
2022/02/10 14:34:51;;;;;;;;;;;7.80;99.90;;;;;;5115193;28;19920;-79
2022/02/10 14:40:25;;;;;;;;;;;7.70;99.90;;;;;;5114568;28;19922;-78
2022/02/10 16:15:09;;;;;;;;;;;6.20;99.90;;;;;;5113371;28;19915;-77
2022/02/10 16:17:35;;;;;;;;;;;6.20;99.90;;;;;;5089174;28;20007;-78
2022/02/10 16:20:07;;;;;;;;;;;6.20;99.90;;;;;;5090453;28;19994;-79
2022/02/10 16:22:39;;;;;;;;;;;6.20;99.90;;;;;;5099770;28;19923;-78
2022/02/10 16:25:07;;;;;;;;;;;6.20;99.90;;;;;;5112075;28;20315;-77
2022/02/10 16:27:35;;;;;;;;;;;6.10;99.90;;;;;;5093063;28;20327;-77
2022/02/10 16:30:13;;;;;;;;;;;6.10;99.90;;;;;;5093699;28;19919;-78
2022/02/10 16:32:40;;;;;;;;;;;6.00;99.90;;;;;;5091373;28;19920;-78
2022/02/10 16:35:06;;;;;;;;;;;6.00;99.90;;;;;;5113113;28;20261;-79
2022/02/10 16:37:34;;;;;;;;;;;5.90;99.90;;;;;;5105530;28;19922;-78
2022/02/10 16:40:01;;;;;;;;;;;5.90;99.90;;;;;;5112090;28;19920;-78
2022/02/10 16:42:26;;;;;;;;;;;5.90;99.90;;;;;;5111700;28;19923;-76
2022/02/10 16:44:53;;;;;;;;;;;5.80;99.90;;;;;;5090847;28;19916;-79
2022/02/10 16:47:19;;;;;;;;;;;5.80;99.90;;;;;;5076747;28;19919;-78
2022/02/10 16:49:47;;;;;;;;;;;5.70;99.90;;;;;;5113192;28;19937;-79
2022/02/10 16:52:28;;;;;;;;;;;5.70;99.90;;;;;;5096150;28;19912;-80
2022/02/10 16:55:06;;;;;;;;;;;5.60;99.90;;;;;;5094525;28;19927;-79
2022/02/10 17:32:28;;;;;;;;;;;5.20;99.90;;;;;;5104089;28;19955;-78
2022/02/10 17:53:32;;;;;;;;;;;5.00;99.90;;;;;;5112411;28;20086;-78
2022/02/10 17:55:58;;;;;;;;;;;4.90;99.90;;;;;;5119649;22;20281;-78
2022/02/10 17:58:24;;;;;;;;;;;4.80;99.90;;;;;;5094583;28;19922;-78
2022/02/10 18:00:53;;;;;;;;;;;4.70;99.90;;;;;;5104015;28;20318;-78
2022/02/10 18:03:19;;;;;;;;;;;4.60;99.90;;;;;;5081555;28;19916;-78
2022/02/10 18:08:35;;;;;;;;;;;4.50;99.90;;;;;;5114385;28;20092;-78
2022/02/10 18:16:33;;;;;;;;;;;4.40;99.90;;;;;;5047137;28;19921;-78
2022/02/10 18:19:03;;;;;;;;;;;4.40;99.90;;;;;;5031118;28;19917;-78
2022/02/10 18:21:52;;;;;;;;;;;4.40;99.90;;;;;;5048990;28;19916;-77
2022/02/10 19:10:10;;;;;;;;;;;4.30;99.90;;;;;;5112098;28;19916;-78
2022/02/10 19:12:53;;;;;;;;;;;4.30;99.90;;;;;;5107750;28;19958;-77
2022/02/10 19:15:22;;;;;;;;;;;4.20;99.90;;;;;;5092484;28;20177;-78
2022/02/10 19:17:48;;;;;;;;;;;4.20;99.90;;;;;;5109934;28;19962;-77
2022/02/10 19:20:14;;;;;;;;;;;4.20;99.90;;;;;;5112746;28;20325;-78
2022/02/10 19:22:41;;;;;;;;;;;4.10;99.90;;;;;;5105147;28;19920;-77
2022/02/10 19:25:08;;;;;;;;;;;4.10;99.90;;;;;;5073981;28;19962;-78
2022/02/10 19:27:35;;;;;;;;;;;4.20;99.90;;;;;;5093918;28;19969;-78
2022/02/10 19:30:01;;;;;;;;;;;4.20;99.90;;;;;;5090300;28;19915;-78
2022/02/10 19:32:30;;;;;;;;;;;4.10;99.90;;;;;;5086771;28;20172;-77
2022/02/10 19:34:58;;;;;;;;;;;4.00;99.90;;;;;;5092685;28;19916;-78
2022/02/10 19:37:24;;;;;;;;;;;4.00;99.90;;;;;;5079530;28;19919;-77
2022/02/10 19:39:56;;;;;;;;;;;3.90;99.90;;;;;;5110049;28;19941;-77
2022/02/10 19:42:22;;;;;;;;;;;4.00;99.90;;;;;;5112337;28;19908;-78
2022/02/10 19:44:48;;;;;;;;;;;3.90;99.90;;;;;;5104866;28;20315;-77
2022/02/10 19:47:13;;;;;;;;;;;3.90;99.90;;;;;;5112518;28;19911;-78
2022/02/10 19:49:41;;;;;;;;;;;3.90;99.90;;;;;;5112177;28;19919;-78
2022/02/10 19:52:07;;;;;;;;;;;3.90;99.90;;;;;;5112042;28;19951;-77
2022/02/10 19:54:38;;;;;;;;;;;3.90;99.90;;;;;;5098617;28;20310;-77
2022/02/10 19:57:04;;;;;;;;;;;4.00;99.90;;;;;;5077001;28;19974;-78
2022/02/10 19:59:32;;;;;;;;;;;3.90;99.90;;;;;;5073480;28;20019;-78
2022/02/10 20:01:57;;;;;;;;;;;3.90;99.90;;;;;;5091525;28;19920;-77
2022/02/10 20:04:24;;;;;;;;;;;3.90;99.90;;;;;;5077724;28;20552;-78
2022/02/10 20:06:51;;;;;;;;;;;3.80;99.90;;;;;;5093618;28;19950;-79
2022/02/10 20:09:17;;;;;;;;;;;3.80;99.90;;;;;;5116227;28;19912;-77
2022/02/10 20:11:43;;;;;;;;;;;3.80;99.90;;;;;;5108102;28;19919;-78
2022/02/10 20:14:09;;;;;;;;;;;3.80;99.90;;;;;;5096640;28;20387;-78
2022/02/10 20:16:34;;;;;;;;;;;3.80;99.90;;;;;;5101524;28;19916;-79
2022/02/10 20:19:02;;;;;;;;;;;3.80;99.90;;;;;;5116257;28;19912;-78
2022/02/10 20:21:29;;;;;;;;;;;3.80;99.90;;;;;;5115339;28;19920;-77
2022/02/10 20:23:54;;;;;;;;;;;3.80;99.90;;;;;;5086590;28;20053;-78
2022/02/10 20:26:20;;;;;;;;;;;3.80;99.90;;;;;;5102515;28;20010;-77
2022/02/10 20:28:46;;;;;;;;;;;3.90;99.90;;;;;;5098362;28;19933;-78
2022/02/10 20:31:11;;;;;;;;;;;3.90;99.90;;;;;;5102828;28;19912;-78
2022/02/10 20:33:37;;;;;;;;;;;4.00;99.90;;;;;;5106808;28;19927;-78
2022/02/10 20:36:05;;;;;;;;;;;4.00;99.90;;;;;;5095008;28;19916;-78
2022/02/10 20:38:33;;;;;;;;;;;4.00;99.90;;;;;;5086040;28;19912;-78
2022/02/10 20:41:12;;;;;;;;;;;4.10;99.90;;;;;;5093671;28;19937;-77
2022/02/10 20:43:38;;;;;;;;;;;4.20;99.90;;;;;;5096519;28;19916;-78
2022/02/10 20:46:07;;;;;;;;;;;4.20;99.90;;;;;;5079760;28;19916;-78
2022/02/10 20:48:35;;;;;;;;;;;4.20;99.90;;;;;;5079770;28;19912;-77
2022/02/10 20:51:02;;;;;;;;;;;4.20;99.90;;;;;;5114349;28;19955;-80
2022/02/10 20:53:29;;;;;;;;;;;4.20;99.90;;;;;;5095783;28;19931;-77
2022/02/10 20:55:55;;;;;;;;;;;4.20;99.90;;;;;;5092977;28;20227;-78
2022/02/10 20:58:24;;;;;;;;;;;4.10;99.90;;;;;;5114011;28;20025;-78
2022/02/10 21:00:55;;;;;;;;;;;4.10;99.90;;;;;;5096654;28;19915;-77
2022/02/10 21:03:24;;;;;;;;;;;4.00;99.90;;;;;;5115098;28;20065;-79
2022/02/10 21:05:51;;;;;;;;;;;4.00;99.90;;;;;;5111875;28;20006;-78
2022/02/10 21:09:10;;;;;;;;;;;3.90;99.90;;;;;;5096787;28;19911;-77
2022/02/10 21:11:04;;;;;;;;;;;3.90;99.90;;;;;;5095300;27;20357;-77
2022/02/10 21:13:31;;;;;;;;;;;3.80;99.90;;;;;;5092167;28;19951;-77
2022/02/10 21:15:57;;;;;;;;;;;3.70;99.90;;;;;;5110739;28;19916;-78
2022/02/10 21:18:24;;;;;;;;;;;3.70;99.90;;;;;;5114371;28;19964;-78
2022/02/10 21:20:51;;;;;;;;;;;3.60;99.90;;;;;;5096569;28;19908;-78
2022/02/10 21:23:25;;;;;;;;;;;3.60;99.90;;;;;;5085137;28;19919;-79
2022/02/10 21:25:54;;;;;;;;;;;3.50;99.90;;;;;;5076374;28;19912;-78
2022/02/10 21:28:28;;;;;;;;;;;3.50;99.90;;;;;;5076251;28;19937;-79
2022/02/10 21:30:56;;;;;;;;;;;3.50;99.90;;;;;;5114025;28;19939;-78
2022/02/10 21:33:41;;;;;;;;;;;3.40;99.90;;;;;;5088711;28;20327;-78
2022/02/10 21:39:04;;;;;;;;;;;3.40;99.90;;;;;;5113222;28;19923;-78
2022/02/10 21:55:37;;;;;;;;;;;3.00;99.90;;;;;;5105780;27;19930;-78
2022/02/10 22:06:16;;;;;;;;;;;2.90;99.90;;;;;;5104945;28;20329;-78
2022/02/10 22:09:08;;;;;;;;;;;2.90;99.90;;;;;;5097309;28;20041;-79
2022/02/10 22:17:04;;;;;;;;;;;2.80;99.90;;;;;;5111698;28;19912;-78
2022/02/10 22:19:41;;;;;;;;;;;2.80;99.90;;;;;;5083948;28;19912;-78
2022/02/10 22:22:13;;;;;;;;;;;2.80;99.90;;;;;;5097038;28;19994;-78
2022/02/10 22:24:39;;;;;;;;;;;2.80;99.90;;;;;;5095191;28;20226;-79
2022/02/10 22:27:05;;;;;;;;;;;2.80;99.90;;;;;;5078471;28;19908;-78
2022/02/10 22:29:40;;;;;;;;;;;2.90;99.90;;;;;;5103690;28;19912;-78
2022/02/10 22:34:41;;;;;;;;;;;2.80;99.90;;;;;;5115045;28;19916;-77
2022/02/10 22:37:10;;;;;;;;;;;2.80;99.90;;;;;;5113032;28;19923;-78
2022/02/10 22:39:41;;;;;;;;;;;2.70;99.90;;;;;;5111905;28;19927;-78
2022/02/10 22:42:07;;;;;;;;;;;2.70;99.90;;;;;;5095943;28;20290;-78
2022/02/10 22:44:34;;;;;;;;;;;2.70;99.90;;;;;;5106645;28;19954;-78
2022/02/10 22:47:01;;;;;;;;;;;2.60;99.90;;;;;;5077870;28;19956;-78
2022/02/10 22:49:27;;;;;;;;;;;2.60;99.90;;;;;;5082544;28;19912;-78
2022/02/10 22:51:53;;;;;;;;;;;2.60;99.90;;;;;;5101905;28;20336;-78
2022/02/10 22:54:18;;;;;;;;;;;2.60;99.90;;;;;;5115821;28;19958;-77
2022/02/10 22:56:45;;;;;;;;;;;2.60;99.90;;;;;;5113812;28;19924;-78
2022/02/10 22:59:10;;;;;;;;;;;2.60;99.90;;;;;;5084819;28;19912;-78
2022/02/10 23:01:36;;;;;;;;;;;2.60;99.90;;;;;;5079594;28;19935;-80
2022/02/10 23:04:02;;;;;;;;;;;2.60;99.90;;;;;;5097634;28;20023;-78
2022/02/10 23:06:28;;;;;;;;;;;2.60;99.90;;;;;;5098356;28;19974;-77
2022/02/10 23:08:54;;;;;;;;;;;2.60;99.90;;;;;;5115719;28;19965;-78
2022/02/10 23:11:27;;;;;;;;;;;2.70;99.90;;;;;;5088822;28;19961;-78
2022/02/10 23:13:53;;;;;;;;;;;2.70;99.90;;;;;;5109815;28;19919;-79
2022/02/10 23:16:19;;;;;;;;;;;2.70;99.90;;;;;;5090470;28;19916;-77
2022/02/10 23:18:45;;;;;;;;;;;2.70;99.90;;;;;;5110216;28;19923;-78
2022/02/10 23:21:13;;;;;;;;;;;2.70;99.90;;;;;;5096240;28;19916;-78
2022/02/10 23:23:39;;;;;;;;;;;2.80;99.90;;;;;;5094944;28;19965;-78
2022/02/10 23:26:06;;;;;;;;;;;3.00;99.90;;;;;;5113117;28;19916;-78
2022/02/10 23:28:34;;;;;;;;;;;3.20;99.90;;;;;;5096948;28;19926;-77
2022/02/10 23:31:00;;;;;;;;;;;3.40;99.90;;;;;;5107640;28;19916;-78
2022/02/10 23:33:36;;;;;;;;;;;3.50;99.90;;;;;;5099415;28;20124;-80
2022/02/10 23:38:40;;;;;;;;;;;3.90;99.90;;;;;;5099805;28;19919;-78
2022/02/10 23:44:03;;;;;;;;;;;4.10;99.90;;;;;;5083829;28;19920;-77
2022/02/10 23:46:29;;;;;;;;;;;4.20;99.90;;;;;;5105623;28;19924;-77
2022/02/10 23:48:56;;;;;;;;;;;4.40;99.90;;;;;;5113028;28;19968;-77
2022/02/10 23:51:26;;;;;;;;;;;4.50;99.90;;;;;;5094685;28;19920;-77
2022/02/10 23:53:51;;;;;;;;;;;4.50;99.90;;;;;;5113894;28;20322;-77
2022/02/10 23:56:19;;;;;;;;;;;4.70;99.90;;;;;;5104370;28;19948;-77
2022/02/10 23:59:10;;;;;;;;;;;4.70;99.90;;;;;;5110104;28;19919;-77
